Time,TemperatureF,DewpointF,PressureIn,WindDirection,WindDirectionDegrees,WindSpeedMPH,WindSpeedGustMPH,Humidity,HourlyPrecipIn,Conditions,Clouds,dailyrainin,SoftwareType,DateUTC
2013-03-07 00:00:00,32.6,24.9,30.17,SW,236,0.0,0.0,73,0.00,,SCT035,0.00,VWS V14.01,2013-03-07 05:00:00,
2013-03-07 00:01:00,32.5,24.8,30.17,WSW,238,0.0,1.0,73,0.00,,SCT035,0.00,VWS V14.01,2013-03-07 05:01:00,
2013-03-07 00:06:00,32.4,24.7,30.17,NE,46,0.0,0.0,73,0.00,,SCT035,0.00,VWS V14.01,2013-03-07 05:06:00,
2013-03-07 00:11:00,32.2,24.9,30.17,WSW,242,0.0,0.0,74,0.00,,SCT035,0.00,VWS V14.01,2013-03-07 05:11:00,
2013-03-07 00:16:00,32.0,24.7,30.17,NE,36,1.0,1.0,74,0.00,,SCT035,0.00,VWS V14.01,2013-03-07 05:16:00,
2013-03-07 00:21:00,32.0,24.7,30.17,ENE,63,0.0,0.0,74,0.00,,SCT035,0.00,VWS V14.01,2013-03-07 05:21:00,
2013-03-07 00:26:00,31.7,24.4,30.17,SW,224,0.0,0.0,74,0.00,,SCT035,0.00,VWS V14.01,2013-03-07 05:26:00,
2013-03-07 00:31:00,31.4,24.4,30.17,ESE,118,1.0,1.0,75,0.00,,SCT035,0.00,VWS V14.01,2013-03-07 05:31:00,
2013-03-07 00:36:00,31.2,24.2,30.17,SE,144,0.0,1.0,75,0.00,,SCT035,0.00,VWS V14.01,2013-03-07 05:36:00,
2013-03-07 00:41:00,31.0,24.3,30.17,SE,144,0.0,0.0,76,0.00,,SCT035,0.00,VWS V14.01,2013-03-07 05:41:00,
2013-03-07 00:46:00,30.7,24.0,30.18,SE,144,0.0,0.0,76,0.00,,SCT035,0.00,VWS V14.01,2013-03-07 05:46:00,
2013-03-07 00:51:00,30.2,23.6,30.18,SE,143,1.0,1.0,76,0.00,,SCT035,0.00,VWS V14.01,2013-03-07 05:51:00,
2013-03-07 00:56:00,30.1,23.8,30.18,SE,132,0.0,1.0,77,0.00,,SCT035,0.00,VWS V14.01,2013-03-07 05:56:00,
2013-03-07 01:01:00,30.3,24.0,30.19,SE,145,1.0,1.0,77,0.00,,SCT035,0.00,VWS V14.01,2013-03-07 06:01:00,
2013-03-07 01:06:00,30.1,23.8,30.19,SE,129,0.0,0.0,77,0.00,,SCT035,0.00,VWS V14.01,2013-03-07 06:06:00,
2013-03-07 01:11:00,30.1,24.1,30.19,SE,128,1.0,1.0,78,0.00,,SCT035,0.00,VWS V14.01,2013-03-07 06:11:00,
2013-03-07 01:16:00,29.8,23.8,30.19,ESE,104,0.0,0.0,78,0.00,,SCT035,0.00,VWS V14.01,2013-03-07 06:16:00,
2013-03-07 01:21:00,29.6,23.6,30.18,SE,126,1.0,1.0,78,0.00,,SCT035,0.00,VWS V14.01,2013-03-07 06:21:00,
2013-03-07 01:26:00,29.7,23.7,30.19,ESE,122,1.0,1.0,78,0.00,,SCT035,0.00,VWS V14.01,2013-03-07 06:26:00,
2013-03-07 01:31:00,30.0,24.0,30.19,SSW,201,0.0,0.0,78,0.00,,SCT035,0.00,VWS V14.01,2013-03-07 06:31:00,
2013-03-07 01:36:00,30.5,24.5,30.19,SW,226,2.0,2.0,78,0.00,,SCT035,0.00,VWS V14.01,2013-03-07 06:36:00,
2013-03-07 01:41:00,30.8,24.8,30.19,West,263,1.0,2.0,78,0.00,,SCT035,0.00,VWS V14.01,2013-03-07 06:41:00,
2013-03-07 01:46:00,31.1,24.8,30.19,West,274,0.0,0.0,77,0.00,,SCT035,0.00,VWS V14.01,2013-03-07 06:46:00,
2013-03-07 01:51:00,31.1,24.8,30.19,NE,43,1.0,1.0,77,0.00,,SCT035,0.00,VWS V14.01,2013-03-07 06:51:00,
2013-03-07 01:56:00,31.2,24.8,30.18,NW,320,0.0,0.0,77,0.00,,SCT035,0.00,VWS V14.01,2013-03-07 06:56:00,
2013-03-07 02:01:00,31.2,24.8,30.18,NE,53,0.0,0.0,77,0.00,,SCT035,0.00,VWS V14.01,2013-03-07 07:01:00,
2013-03-07 02:06:00,31.2,24.5,30.18,SSE,150,0.0,0.0,76,0.00,,SCT035,0.00,VWS V14.01,2013-03-07 07:06:00,
2013-03-07 02:11:00,30.9,24.2,30.19,SSE,149,0.0,0.0,76,0.00,,SCT035,0.00,VWS V14.01,2013-03-07 07:11:00,
2013-03-07 02:16:00,30.4,24.1,30.18,SSE,150,0.0,0.0,77,0.00,,SCT035,0.00,VWS V14.01,2013-03-07 07:16:00,
2013-03-07 02:21:00,29.9,23.6,30.18,SSE,150,0.0,0.0,77,0.00,,SCT035,0.00,VWS V14.01,2013-03-07 07:21:00,
2013-03-07 02:26:00,29.8,23.8,30.18,SE,129,1.0,1.0,78,0.00,,SCT035,0.00,VWS V14.01,2013-03-07 07:26:00,
2013-03-07 02:31:00,30.3,24.3,30.17,NE,46,0.0,0.0,78,0.00,,SCT035,0.00,VWS V14.01,2013-03-07 07:31:00,
2013-03-07 02:36:00,29.8,23.8,30.18,NNW,328,0.0,0.0,78,0.00,,SCT035,0.00,VWS V14.01,2013-03-07 07:36:00,
2013-03-07 02:41:00,29.3,23.6,30.17,South,170,1.0,1.0,79,0.00,,SCT035,0.00,VWS V14.01,2013-03-07 07:41:00,
2013-03-07 02:46:00,29.1,23.4,30.17,ENE,57,1.0,1.0,79,0.00,,SCT035,0.00,VWS V14.01,2013-03-07 07:46:00,
2013-03-07 02:51:00,29.0,23.6,30.17,ENE,58,0.0,0.0,80,0.00,,SCT035,0.00,VWS V14.01,2013-03-07 07:51:00,
2013-03-07 02:56:00,28.7,23.3,30.17,ESE,115,0.0,0.0,80,0.00,,SCT035,0.00,VWS V14.01,2013-03-07 07:56:00,
2013-03-07 03:01:00,28.4,23.0,30.17,ESE,115,0.0,0.0,80,0.00,,SCT035,0.00,VWS V14.01,2013-03-07 08:01:00,
2013-03-07 03:06:00,28.2,23.1,30.17,ESE,114,0.0,0.0,81,0.00,,SCT035,0.00,VWS V14.01,2013-03-07 08:06:00,
2013-03-07 03:11:00,28.0,22.9,30.18,ESE,114,0.0,0.0,81,0.00,,SCT035,0.00,VWS V14.01,2013-03-07 08:11:00,
2013-03-07 03:16:00,27.8,22.7,30.18,ESE,114,0.0,0.0,81,0.00,,SCT035,0.00,VWS V14.01,2013-03-07 08:16:00,
2013-03-07 03:21:00,27.6,22.8,30.18,ESE,114,0.0,0.0,82,0.00,,SCT035,0.00,VWS V14.01,2013-03-07 08:21:00,
2013-03-07 03:26:00,27.3,22.5,30.18,ESE,115,0.0,0.0,82,0.00,,SCT035,0.00,VWS V14.01,2013-03-07 08:26:00,
2013-03-07 03:31:00,27.2,22.4,30.18,ESE,116,0.0,0.0,82,0.00,,SCT035,0.00,VWS V14.01,2013-03-07 08:31:00,
2013-03-07 03:36:00,27.0,22.2,30.18,ESE,115,0.0,0.0,82,0.00,,SCT035,0.00,VWS V14.01,2013-03-07 08:36:00,
2013-03-07 03:41:00,26.8,22.3,30.19,ESE,115,0.0,0.0,83,0.00,,SCT035,0.00,VWS V14.01,2013-03-07 08:41:00,
2013-03-07 03:46:00,26.7,22.2,30.19,ESE,116,0.0,0.0,83,0.00,,SCT035,0.00,VWS V14.01,2013-03-07 08:46:00,
2013-03-07 03:51:00,26.5,22.0,30.20,ESE,114,0.0,0.0,83,0.00,,SCT035,0.00,VWS V14.01,2013-03-07 08:51:00,
2013-03-07 03:56:00,26.3,22.1,30.20,ESE,114,0.0,0.0,84,0.00,,SCT035,0.00,VWS V14.01,2013-03-07 08:56:00,
2013-03-07 04:01:00,26.1,21.9,30.20,ESE,114,0.0,0.0,84,0.00,,SCT035,0.00,VWS V14.01,2013-03-07 09:01:00,
2013-03-07 04:06:00,26.1,21.9,30.19,ESE,114,0.0,0.0,84,0.00,,SCT035,0.00,VWS V14.01,2013-03-07 09:06:00,
2013-03-07 04:11:00,26.1,21.9,30.19,East,89,0.0,0.0,84,0.00,,SCT035,0.00,VWS V14.01,2013-03-07 09:11:00,
2013-03-07 04:16:00,26.1,21.9,30.20,East,89,1.0,1.0,84,0.00,,SCT035,0.00,VWS V14.01,2013-03-07 09:16:00,
2013-03-07 04:21:00,26.0,21.8,30.20,East,89,0.0,0.0,84,0.00,,SCT035,0.00,VWS V14.01,2013-03-07 09:21:00,
2013-03-07 04:26:00,26.0,22.1,30.20,East,89,0.0,0.0,85,0.00,,SCT035,0.00,VWS V14.01,2013-03-07 09:26:00,
2013-03-07 04:31:00,25.9,22.0,30.21,East,89,0.0,0.0,85,0.00,,SCT035,0.00,VWS V14.01,2013-03-07 09:31:00,
2013-03-07 04:36:00,25.8,21.9,30.21,East,87,1.0,1.0,85,0.00,,SCT035,0.00,VWS V14.01,2013-03-07 09:36:00,
2013-03-07 04:41:00,25.8,21.9,30.21,East,86,0.0,0.0,85,0.00,,SCT035,0.00,VWS V14.01,2013-03-07 09:41:00,
2013-03-07 04:46:00,25.6,21.7,30.21,East,86,1.0,1.0,85,0.00,,SCT035,0.00,VWS V14.01,2013-03-07 09:46:00,
2013-03-07 04:51:00,25.5,21.6,30.21,East,85,0.0,1.0,85,0.00,,SCT035,0.00,VWS V14.01,2013-03-07 09:51:00,
2013-03-07 04:56:00,25.5,21.6,30.21,NE,38,1.0,2.0,85,0.00,,SCT035,0.00,VWS V14.01,2013-03-07 09:56:00,
2013-03-07 05:01:00,25.6,21.7,30.22,NE,40,0.0,0.0,85,0.00,,SCT035,0.00,VWS V14.01,2013-03-07 10:01:00,
2013-03-07 05:06:00,25.8,21.9,30.22,NE,39,0.0,0.0,85,0.00,,SCT035,0.00,VWS V14.01,2013-03-07 10:06:00,
2013-03-07 05:11:00,25.7,21.8,30.22,NE,41,0.0,0.0,85,0.00,,SCT035,0.00,VWS V14.01,2013-03-07 10:11:00,
2013-03-07 05:16:00,25.4,21.5,30.22,NE,39,0.0,1.0,85,0.00,,SCT035,0.00,VWS V14.01,2013-03-07 10:16:00,
2013-03-07 05:21:00,25.3,21.7,30.22,NE,40,0.0,1.0,86,0.00,,SCT035,0.00,VWS V14.01,2013-03-07 10:21:00,
2013-03-07 05:26:00,25.1,21.5,30.22,NE,40,0.0,0.0,86,0.00,,SCT035,0.00,VWS V14.01,2013-03-07 10:26:00,
2013-03-07 05:31:00,25.1,21.5,30.23,NE,39,0.0,1.0,86,0.00,,SCT035,0.00,VWS V14.01,2013-03-07 10:31:00,
2013-03-07 05:36:00,25.2,21.6,30.23,NE,39,0.0,0.0,86,0.00,,SCT035,0.00,VWS V14.01,2013-03-07 10:36:00,
2013-03-07 05:41:00,25.1,21.5,30.23,NE,39,0.0,0.0,86,0.00,,SCT035,0.00,VWS V14.01,2013-03-07 10:41:00,
2013-03-07 05:47:00,25.0,21.4,30.23,SSE,155,0.0,1.0,86,0.00,,SCT035,0.00,VWS V14.01,2013-03-07 10:47:00,
2013-03-07 05:52:00,24.8,21.2,30.23,SSE,156,0.0,1.0,86,0.00,,SCT035,0.00,VWS V14.01,2013-03-07 10:52:00,
2013-03-07 05:56:00,24.8,21.2,30.24,NE,46,0.0,1.0,86,0.00,,SCT035,0.00,VWS V14.01,2013-03-07 10:56:00,
2013-03-07 06:01:00,24.6,21.0,30.24,NE,46,0.0,0.0,86,0.00,,SCT035,0.00,VWS V14.01,2013-03-07 11:01:00,
2013-03-07 06:07:00,24.4,20.8,30.24,NE,46,0.0,0.0,86,0.00,,SCT035,0.00,VWS V14.01,2013-03-07 11:07:00,
2013-03-07 06:12:00,24.3,20.7,30.24,NE,46,0.0,0.0,86,0.00,,SCT035,0.00,VWS V14.01,2013-03-07 11:12:00,
2013-03-07 06:17:00,24.2,20.6,30.24,NE,46,0.0,0.0,86,0.00,,SCT035,0.00,VWS V14.01,2013-03-07 11:17:00,
2013-03-07 06:22:00,24.0,20.4,30.24,NE,46,0.0,0.0,86,0.00,,SCT035,0.00,VWS V14.01,2013-03-07 11:22:00,
2013-03-07 06:27:00,23.9,20.3,30.25,NE,46,0.0,0.0,86,0.00,,SCT035,0.00,VWS V14.01,2013-03-07 11:27:00,
2013-03-07 06:32:00,24.0,20.7,30.25,NE,48,0.0,0.0,87,0.00,,SCT035,0.00,VWS V14.01,2013-03-07 11:32:00,
2013-03-07 06:37:00,23.9,20.6,30.25,NE,49,0.0,0.0,87,0.00,,SCT035,0.00,VWS V14.01,2013-03-07 11:37:00,
2013-03-07 06:42:00,23.7,20.4,30.25,SE,126,1.0,1.0,87,0.00,,SCT035,0.00,VWS V14.01,2013-03-07 11:42:00,
2013-03-07 06:47:00,23.8,20.5,30.25,SSE,148,0.0,0.0,87,0.00,,SCT035,0.00,VWS V14.01,2013-03-07 11:47:00,
2013-03-07 06:52:00,23.8,20.5,30.25,SSE,148,0.0,0.0,87,0.00,,SCT035,0.00,VWS V14.01,2013-03-07 11:52:00,
2013-03-07 06:57:00,23.8,20.5,30.25,SSE,149,1.0,1.0,87,0.00,,SCT035,0.00,VWS V14.01,2013-03-07 11:57:00,
2013-03-07 07:02:00,23.8,20.5,30.25,SSE,149,0.0,0.0,87,0.00,,SCT035,0.00,VWS V14.01,2013-03-07 12:02:00,
2013-03-07 07:07:00,23.9,20.6,30.25,SSE,158,0.0,1.0,87,0.00,,SCT035,0.00,VWS V14.01,2013-03-07 12:07:00,
2013-03-07 07:12:00,24.0,20.7,30.25,SSE,159,0.0,1.0,87,0.00,,SCT035,0.00,VWS V14.01,2013-03-07 12:12:00,
2013-03-07 07:17:00,24.1,20.8,30.25,SSE,159,0.0,0.0,87,0.00,,SCT035,0.00,VWS V14.01,2013-03-07 12:17:00,
2013-03-07 07:22:00,24.4,21.1,30.25,East,79,2.0,2.0,87,0.00,,SCT035,0.00,VWS V14.01,2013-03-07 12:22:00,
2013-03-07 07:27:00,25.1,21.8,30.26,East,79,0.0,0.0,87,0.00,,SCT035,0.00,VWS V14.01,2013-03-07 12:27:00,
2013-03-07 07:32:00,25.2,21.9,30.26,East,79,0.0,0.0,87,0.00,,SCT035,0.00,VWS V14.01,2013-03-07 12:32:00,
2013-03-07 07:37:00,25.3,22.0,30.26,East,79,1.0,1.0,87,0.00,,SCT035,0.00,VWS V14.01,2013-03-07 12:37:00,
2013-03-07 07:42:00,25.5,22.2,30.26,East,79,1.0,1.0,87,0.00,,SCT035,0.00,VWS V14.01,2013-03-07 12:42:00,
2013-03-07 07:47:00,26.1,22.8,30.26,East,79,0.0,0.0,87,0.00,,SCT035,0.00,VWS V14.01,2013-03-07 12:47:00,
2013-03-07 07:52:00,26.5,23.2,30.26,East,79,0.0,0.0,87,0.00,,SCT035,0.00,VWS V14.01,2013-03-07 12:52:00,
2013-03-07 07:57:00,26.7,23.4,30.27,East,79,0.0,0.0,87,0.00,,SCT035,0.00,VWS V14.01,2013-03-07 12:57:00,
2013-03-07 08:02:00,27.4,24.0,30.27,East,79,0.0,0.0,87,0.00,,SCT035,0.00,VWS V14.01,2013-03-07 13:02:00,
2013-03-07 08:07:00,28.0,24.6,30.27,East,79,1.0,1.0,87,0.00,,SCT035,0.00,VWS V14.01,2013-03-07 13:07:00,
2013-03-07 08:12:00,28.4,25.0,30.27,WNW,297,0.0,1.0,87,0.00,,SCT035,0.00,VWS V14.01,2013-03-07 13:12:00,
2013-03-07 08:17:00,29.4,25.7,30.27,WNW,297,0.0,0.0,86,0.00,,SCT035,0.00,VWS V14.01,2013-03-07 13:17:00,
2013-03-07 08:22:00,30.1,26.4,30.27,WNW,297,0.0,1.0,86,0.00,,SCT035,0.00,VWS V14.01,2013-03-07 13:22:00,
2013-03-07 08:27:00,31.0,27.0,30.27,SSW,205,0.0,1.0,85,0.00,,SCT035,0.00,VWS V14.01,2013-03-07 13:27:00,
2013-03-07 08:32:00,32.1,27.5,30.28,NNE,31,1.0,1.0,83,0.00,,SCT035,0.00,VWS V14.01,2013-03-07 13:32:00,
2013-03-07 08:37:00,33.1,27.9,30.28,WSW,253,0.0,1.0,81,0.00,,SCT035,0.00,VWS V14.01,2013-03-07 13:37:00,
2013-03-07 08:42:00,33.7,27.9,30.27,WNW,287,0.0,0.0,79,0.00,,SCT035,0.00,VWS V14.01,2013-03-07 13:42:00,
2013-03-07 08:47:00,34.3,27.5,30.27,West,259,1.0,1.0,76,0.00,,SCT035,0.00,VWS V14.01,2013-03-07 13:47:00,
2013-03-07 08:52:00,35.0,27.2,30.28,West,259,1.0,1.0,73,0.00,,SCT035,0.00,VWS V14.01,2013-03-07 13:52:00,
2013-03-07 08:57:00,35.5,27.0,30.27,SSW,212,1.0,1.0,71,0.00,,SCT035,0.00,VWS V14.01,2013-03-07 13:57:00,
2013-03-07 09:02:00,36.0,27.2,30.27,NW,309,1.0,1.0,70,0.00,,SCT035,0.00,VWS V14.01,2013-03-07 14:02:00,
2013-03-07 09:07:00,36.4,27.6,30.28,NNE,20,0.0,0.0,70,0.00,,SCT035,0.00,VWS V14.01,2013-03-07 14:07:00,
2013-03-07 09:12:00,37.3,28.1,30.27,NNW,334,2.0,3.0,69,0.00,,SCT035,0.00,VWS V14.01,2013-03-07 14:12:00,
2013-03-07 09:17:00,38.0,28.0,30.27,East,90,1.0,1.0,67,0.00,,SCT035,0.00,VWS V14.01,2013-03-07 14:17:00,
2013-03-07 09:22:00,38.6,28.2,30.27,WNW,285,3.0,3.0,66,0.00,,SCT035,0.00,VWS V14.01,2013-03-07 14:22:00,
2013-03-07 09:27:00,39.1,28.3,30.27,WNW,287,1.0,2.0,65,0.00,,SCT035,0.00,VWS V14.01,2013-03-07 14:27:00,
2013-03-07 09:32:00,39.7,28.1,30.27,NW,309,2.0,3.0,63,0.00,,SCT035,0.00,VWS V14.01,2013-03-07 14:32:00,
2013-03-07 09:37:00,40.3,28.7,30.27,SW,221,1.0,2.0,63,0.00,,SCT035,0.00,VWS V14.01,2013-03-07 14:37:00,
2013-03-07 09:42:00,40.7,27.9,30.27,NW,316,2.0,2.0,60,0.00,,SCT035,0.00,VWS V14.01,2013-03-07 14:42:00,
2013-03-07 09:47:00,41.2,28.4,30.26,NE,56,1.0,1.0,60,0.00,,SCT035,0.00,VWS V14.01,2013-03-07 14:47:00,
2013-03-07 09:52:00,41.5,28.3,30.27,North,355,2.0,2.0,59,0.00,,SCT035,0.00,VWS V14.01,2013-03-07 14:52:00,
2013-03-07 09:57:00,41.9,28.2,30.27,ENE,72,1.0,1.0,58,0.00,,SCT035,0.00,VWS V14.01,2013-03-07 14:57:00,
2013-03-07 10:02:00,42.5,27.9,30.27,West,278,1.0,1.0,56,0.00,,SCT035,0.00,VWS V14.01,2013-03-07 15:02:00,
2013-03-07 10:07:00,42.8,27.8,30.27,WNW,298,2.0,3.0,55,0.00,,SCT035,0.00,VWS V14.01,2013-03-07 15:07:00,
2013-03-07 10:12:00,43.3,27.8,30.27,NE,48,6.0,6.0,54,0.00,,SCT035,0.00,VWS V14.01,2013-03-07 15:12:00,
2013-03-07 10:17:00,43.1,27.1,30.27,North,359,3.0,4.0,53,0.00,,SCT035,0.00,VWS V14.01,2013-03-07 15:17:00,
2013-03-07 10:22:00,43.0,27.0,30.27,NE,38,1.0,2.0,53,0.00,,SCT035,0.00,VWS V14.01,2013-03-07 15:22:00,
2013-03-07 10:27:00,43.6,27.1,30.27,ENE,77,1.0,1.0,52,0.00,,SCT035,0.00,VWS V14.01,2013-03-07 15:27:00,
2013-03-07 10:32:00,44.2,27.7,30.27,West,262,1.0,3.0,52,0.00,,SCT035,0.00,VWS V14.01,2013-03-07 15:32:00,
2013-03-07 10:38:00,44.7,28.6,30.28,ENE,58,2.0,2.0,53,0.00,,SCT035,0.00,VWS V14.01,2013-03-07 15:38:00,
2013-03-07 10:43:00,45.2,27.7,30.27,WNW,297,2.0,5.0,50,0.00,,SCT035,0.00,VWS V14.01,2013-03-07 15:43:00,
2013-03-07 10:48:00,45.1,27.6,30.27,NW,316,0.0,2.0,50,0.00,,SCT035,0.00,VWS V14.01,2013-03-07 15:48:00,
2013-03-07 10:53:00,44.7,26.7,30.27,WNW,293,1.0,3.0,49,0.00,,SCT035,0.00,VWS V14.01,2013-03-07 15:53:00,
2013-03-07 10:58:00,44.2,27.2,30.27,WSW,248,1.0,1.0,51,0.00,,SCT035,0.00,VWS V14.01,2013-03-07 15:58:00,
2013-03-07 11:03:00,44.9,27.4,30.27,West,273,2.0,3.0,50,0.00,,SCT035,0.00,VWS V14.01,2013-03-07 16:03:00,
2013-03-07 11:08:00,45.1,27.6,30.27,NE,51,8.0,8.0,50,0.00,,SCT035,0.00,VWS V14.01,2013-03-07 16:08:00,
2013-03-07 11:13:00,45.1,27.1,30.27,NW,305,1.0,2.0,49,0.00,,SCT035,0.00,VWS V14.01,2013-03-07 16:13:00,
2013-03-07 11:18:00,45.5,27.0,30.27,NE,54,2.0,4.0,48,0.00,,SCT035,0.00,VWS V14.01,2013-03-07 16:18:00,
2013-03-07 11:23:00,46.0,27.4,30.27,WNW,283,2.0,3.0,48,0.00,,SCT035,0.00,VWS V14.01,2013-03-07 16:23:00,
2013-03-07 11:28:00,45.8,26.7,30.27,WNW,298,2.0,3.0,47,0.00,,SCT035,0.00,VWS V14.01,2013-03-07 16:28:00,
2013-03-07 11:33:00,45.9,26.8,30.26,West,262,1.0,2.0,47,0.00,,SCT035,0.00,VWS V14.01,2013-03-07 16:33:00,
2013-03-07 11:38:00,47.1,28.4,30.27,WNW,288,1.0,3.0,48,0.00,,SCT035,0.00,VWS V14.01,2013-03-07 16:38:00,
2013-03-07 11:43:00,48.0,28.8,30.27,ENE,75,2.0,2.0,47,0.00,,SCT035,0.00,VWS V14.01,2013-03-07 16:43:00,
2013-03-07 11:48:00,47.4,28.2,30.27,NNE,23,2.0,2.0,47,0.00,,SCT035,0.00,VWS V14.01,2013-03-07 16:48:00,
2013-03-07 11:53:00,47.6,27.9,30.26,North,9,3.0,3.0,46,0.00,,SCT035,0.00,VWS V14.01,2013-03-07 16:53:00,
2013-03-07 11:58:00,47.3,27.0,30.26,NNE,26,1.0,1.0,45,0.00,,SCT035,0.00,VWS V14.01,2013-03-07 16:58:00,
2013-03-07 12:03:00,48.1,28.3,30.26,SW,221,2.0,2.0,46,0.00,,SCT035,0.00,VWS V14.01,2013-03-07 17:03:00,
2013-03-07 12:08:00,48.3,28.5,30.26,SE,131,1.0,1.0,46,0.00,,SCT035,0.00,VWS V14.01,2013-03-07 17:08:00,
2013-03-07 12:13:00,48.3,28.5,30.25,West,278,1.0,1.0,46,0.00,,SCT035,0.00,VWS V14.01,2013-03-07 17:13:00,
2013-03-07 12:18:00,49.1,29.2,30.25,NNE,23,2.0,4.0,46,0.00,,SCT035,0.00,VWS V14.01,2013-03-07 17:18:00,
2013-03-07 12:23:00,48.3,27.4,30.25,North,352,2.0,5.0,44,0.00,,SCT035,0.00,VWS V14.01,2013-03-07 17:23:00,
2013-03-07 12:28:00,48.5,28.7,30.25,NNE,20,6.0,8.0,46,0.00,,SCT035,0.00,VWS V14.01,2013-03-07 17:28:00,
2013-03-07 12:33:00,48.7,27.8,30.25,SSE,147,0.0,2.0,44,0.00,,SCT035,0.00,VWS V14.01,2013-03-07 17:33:00,
2013-03-07 12:38:00,48.8,28.4,30.25,NNE,14,2.0,4.0,45,0.00,,SCT035,0.00,VWS V14.01,2013-03-07 17:38:00,
2013-03-07 12:43:00,49.0,29.1,30.25,North,350,0.0,2.0,46,0.00,,SCT035,0.00,VWS V14.01,2013-03-07 17:43:00,
2013-03-07 12:48:00,49.8,27.6,30.24,ENE,74,1.0,3.0,42,0.00,,SCT035,0.00,VWS V14.01,2013-03-07 17:48:00,
2013-03-07 12:53:00,49.6,28.6,30.24,WNW,302,2.0,2.0,44,0.00,,SCT035,0.00,VWS V14.01,2013-03-07 17:53:00,
2013-03-07 12:58:00,50.0,28.4,30.24,North,360,2.0,5.0,43,0.00,,SCT035,0.00,VWS V14.01,2013-03-07 17:58:00,
2013-03-07 13:03:00,50.0,28.4,30.24,NE,39,2.0,3.0,43,0.00,,SCT035,0.00,VWS V14.01,2013-03-07 18:03:00,
2013-03-07 13:08:00,49.6,27.5,30.23,ENE,65,1.0,6.0,42,0.00,,SCT035,0.00,VWS V14.01,2013-03-07 18:08:00,
2013-03-07 13:13:00,49.8,27.6,30.23,SW,225,1.0,1.0,42,0.00,,SCT035,0.00,VWS V14.01,2013-03-07 18:13:00,
2013-03-07 13:18:00,50.9,28.1,30.23,SSW,203,1.0,3.0,41,0.00,,SCT035,0.00,VWS V14.01,2013-03-07 18:18:00,
2013-03-07 13:23:00,51.2,28.9,30.23,North,1,6.0,8.0,42,0.00,,SCT035,0.00,VWS V14.01,2013-03-07 18:23:00,
2013-03-07 13:28:00,50.9,27.5,30.22,North,352,6.0,6.0,40,0.00,,SCT035,0.00,VWS V14.01,2013-03-07 18:28:00,
2013-03-07 13:33:00,50.6,27.8,30.23,NNE,33,3.0,6.0,41,0.00,,SCT035,0.00,VWS V14.01,2013-03-07 18:33:00,
2013-03-07 13:38:00,51.2,28.3,30.22,West,269,2.0,5.0,41,0.00,,SCT035,0.00,VWS V14.01,2013-03-07 18:38:00,
2013-03-07 13:43:00,51.8,28.3,30.23,WSW,258,1.0,2.0,40,0.00,,SCT035,0.00,VWS V14.01,2013-03-07 18:43:00,
2013-03-07 13:48:00,52.2,29.8,30.22,NNE,12,2.0,2.0,42,0.00,,SCT035,0.00,VWS V14.01,2013-03-07 18:48:00,
2013-03-07 13:53:00,52.3,27.5,30.22,North,354,2.0,3.0,38,0.00,,SCT035,0.00,VWS V14.01,2013-03-07 18:53:00,
2013-03-07 13:58:00,51.8,28.3,30.22,South,172,0.0,1.0,40,0.00,,SCT035,0.00,VWS V14.01,2013-03-07 18:58:00,
2013-03-07 14:03:00,52.2,28.0,30.22,WNW,300,2.0,3.0,39,0.00,,SCT035,0.00,VWS V14.01,2013-03-07 19:03:00,
2013-03-07 14:08:00,52.1,27.9,30.22,SSE,149,3.0,3.0,39,0.00,,SCT035,0.00,VWS V14.01,2013-03-07 19:08:00,
2013-03-07 14:13:00,52.4,28.2,30.21,WSW,243,2.0,5.0,39,0.00,,SCT035,0.00,VWS V14.01,2013-03-07 19:13:00,
2013-03-07 14:18:00,52.2,28.0,30.21,WNW,286,5.0,5.0,39,0.00,,SCT035,0.00,VWS V14.01,2013-03-07 19:18:00,
2013-03-07 14:23:00,52.8,29.2,30.22,NW,304,3.0,3.0,40,0.00,,SCT035,0.00,VWS V14.01,2013-03-07 19:23:00,
2013-03-07 14:28:00,52.6,29.0,30.22,NNE,18,2.0,2.0,40,0.00,,SCT035,0.00,VWS V14.01,2013-03-07 19:28:00,
2013-03-07 14:33:00,52.1,28.5,30.22,NNE,27,2.0,2.0,40,0.00,,SCT035,0.00,VWS V14.01,2013-03-07 19:33:00,
2013-03-07 14:38:00,51.9,28.4,30.22,WNW,285,2.0,2.0,40,0.00,,SCT035,0.00,VWS V14.01,2013-03-07 19:38:00,
2013-03-07 14:43:00,52.5,29.5,30.21,North,359,2.0,2.0,41,0.00,,SCT035,0.00,VWS V14.01,2013-03-07 19:43:00,
2013-03-07 14:48:00,52.8,28.5,30.21,SSW,204,1.0,1.0,39,0.00,,SCT035,0.00,VWS V14.01,2013-03-07 19:48:00,
2013-03-07 14:53:00,52.8,27.9,30.21,West,277,1.0,2.0,38,0.00,,SCT035,0.00,VWS V14.01,2013-03-07 19:53:00,
2013-03-07 14:58:00,53.0,28.7,30.21,NNW,335,3.0,7.0,39,0.00,,SCT035,0.00,VWS V14.01,2013-03-07 19:58:00,
2013-03-07 15:03:00,52.2,27.4,30.22,WNW,293,2.0,4.0,38,0.00,,SCT035,0.00,VWS V14.01,2013-03-07 20:03:00,
2013-03-07 15:08:00,51.5,28.0,30.22,West,271,4.0,4.0,40,0.00,,SCT035,0.00,VWS V14.01,2013-03-07 20:08:00,
2013-03-07 15:13:00,51.8,28.3,30.22,SE,129,1.0,2.0,40,0.00,,SCT035,0.00,VWS V14.01,2013-03-07 20:13:00,
2013-03-07 15:18:00,52.3,30.5,30.22,NNW,331,2.0,5.0,43,0.00,,SCT035,0.00,VWS V14.01,2013-03-07 20:18:00,
2013-03-07 15:23:00,52.7,28.5,30.22,NE,43,3.0,4.0,39,0.00,,SCT035,0.00,VWS V14.01,2013-03-07 20:23:00,
2013-03-07 15:28:00,52.4,28.2,30.22,WSW,257,1.0,5.0,39,0.00,,SCT035,0.00,VWS V14.01,2013-03-07 20:28:00,
2013-03-07 15:33:00,52.0,28.5,30.22,North,5,2.0,3.0,40,0.00,,SCT035,0.00,VWS V14.01,2013-03-07 20:33:00,
2013-03-07 15:38:00,51.8,28.9,30.22,NE,37,5.0,5.0,41,0.00,,SCT035,0.00,VWS V14.01,2013-03-07 20:38:00,
2013-03-07 15:43:00,51.8,28.9,30.22,NNE,21,1.0,1.0,41,0.00,,SCT035,0.00,VWS V14.01,2013-03-07 20:43:00,
2013-03-07 15:48:00,52.2,29.2,30.22,West,262,4.0,4.0,41,0.00,,SCT035,0.00,VWS V14.01,2013-03-07 20:48:00,
2013-03-07 15:53:00,51.4,28.5,30.22,West,274,3.0,3.0,41,0.00,,SCT035,0.00,VWS V14.01,2013-03-07 20:53:00,
2013-03-07 15:58:00,51.2,28.9,30.23,NW,316,2.0,2.0,42,0.00,,SCT035,0.00,VWS V14.01,2013-03-07 20:58:00,
2013-03-07 16:03:00,51.0,27.5,30.23,NNE,20,4.0,8.0,40,0.00,,SCT035,0.00,VWS V14.01,2013-03-07 21:03:00,
2013-03-07 16:08:00,50.5,28.3,30.23,North,4,2.0,2.0,42,0.00,,SCT035,0.00,VWS V14.01,2013-03-07 21:08:00,
2013-03-07 16:13:00,50.8,28.0,30.23,NNE,18,2.0,4.0,41,0.00,,SCT035,0.00,VWS V14.01,2013-03-07 21:13:00,
2013-03-07 16:18:00,50.5,27.7,30.23,NW,318,2.0,4.0,41,0.00,,SCT035,0.00,VWS V14.01,2013-03-07 21:18:00,
2013-03-07 16:23:00,50.0,26.6,30.23,NW,316,0.0,1.0,40,0.00,,SCT035,0.00,VWS V14.01,2013-03-07 21:23:00,
2013-03-07 16:28:00,50.2,27.4,30.23,NW,314,3.0,4.0,41,0.00,,SCT035,0.00,VWS V14.01,2013-03-07 21:28:00,
2013-03-07 16:33:00,50.1,27.9,30.24,West,266,1.0,1.0,42,0.00,,SCT035,0.00,VWS V14.01,2013-03-07 21:33:00,
2013-03-07 16:38:00,50.2,28.0,30.24,NW,316,2.0,4.0,42,0.00,,SCT035,0.00,VWS V14.01,2013-03-07 21:38:00,
2013-03-07 16:43:00,49.9,27.7,30.24,WNW,295,2.0,3.0,42,0.00,,SCT035,0.00,VWS V14.01,2013-03-07 21:43:00,
2013-03-07 16:48:00,49.2,26.5,30.24,West,271,2.0,5.0,41,0.00,,SCT035,0.00,VWS V14.01,2013-03-07 21:48:00,
2013-03-07 16:53:00,48.6,26.0,30.25,WNW,300,3.0,6.0,41,0.00,,SCT035,0.00,VWS V14.01,2013-03-07 21:53:00,
2013-03-07 16:58:00,48.5,26.5,30.25,SW,219,0.0,1.0,42,0.00,,SCT035,0.00,VWS V14.01,2013-03-07 21:58:00,
2013-03-07 17:03:00,48.4,26.4,30.25,West,276,1.0,3.0,42,0.00,,SCT035,0.00,VWS V14.01,2013-03-07 22:03:00,
2013-03-07 17:08:00,47.9,25.9,30.25,SW,226,0.0,2.0,42,0.00,,SCT035,0.00,VWS V14.01,2013-03-07 22:08:00,
2013-03-07 17:13:00,47.1,25.8,30.25,WNW,293,1.0,1.0,43,0.00,,SCT035,0.00,VWS V14.01,2013-03-07 22:13:00,
2013-03-07 17:18:00,46.6,25.9,30.26,NW,309,1.0,2.0,44,0.00,,SCT035,0.00,VWS V14.01,2013-03-07 22:18:00,
2013-03-07 17:23:00,46.0,25.3,30.26,WSW,256,0.0,2.0,44,0.00,,SCT035,0.00,VWS V14.01,2013-03-07 22:23:00,
2013-03-07 17:28:00,45.5,25.4,30.26,NW,319,1.0,2.0,45,0.00,,SCT035,0.00,VWS V14.01,2013-03-07 22:28:00,
2013-03-07 17:33:00,45.1,25.6,30.26,WNW,292,1.0,1.0,46,0.00,,SCT035,0.00,VWS V14.01,2013-03-07 22:33:00,
2013-03-07 17:38:00,44.9,25.9,30.27,West,280,1.0,1.0,47,0.00,,SCT035,0.00,VWS V14.01,2013-03-07 22:38:00,
2013-03-07 17:43:00,44.5,25.5,30.27,ENE,63,2.0,2.0,47,0.00,,SCT035,0.00,VWS V14.01,2013-03-07 22:43:00,
2013-03-07 17:48:00,44.0,26.1,30.27,NW,326,1.0,3.0,49,0.00,,SCT035,0.00,VWS V14.01,2013-03-07 22:48:00,
2013-03-07 17:53:00,43.4,25.5,30.27,WSW,242,0.0,1.0,49,0.00,,SCT035,0.00,VWS V14.01,2013-03-07 22:53:00,
2013-03-07 17:58:00,43.0,25.6,30.27,SSW,212,3.0,3.0,50,0.00,,SCT035,0.00,VWS V14.01,2013-03-07 22:58:00,
2013-03-07 18:03:00,42.5,25.7,30.27,North,360,2.0,3.0,51,0.00,,SCT035,0.00,VWS V14.01,2013-03-07 23:03:00,
2013-03-07 18:08:00,42.1,25.3,30.27,West,266,0.0,2.0,51,0.00,,SCT035,0.00,VWS V14.01,2013-03-07 23:08:00,
2013-03-07 18:14:00,41.6,25.8,30.28,WNW,300,0.0,0.0,53,0.00,,SCT035,0.00,VWS V14.01,2013-03-07 23:14:00,
2013-03-07 18:19:00,41.1,25.3,30.28,NE,34,0.0,0.0,53,0.00,,SCT035,0.00,VWS V14.01,2013-03-07 23:19:00,
2013-03-07 18:24:00,40.7,25.4,30.28,NE,41,0.0,2.0,54,0.00,,SCT035,0.00,VWS V14.01,2013-03-07 23:24:00,
2013-03-07 18:29:00,40.3,25.4,30.28,West,274,1.0,1.0,55,0.00,,SCT035,0.00,VWS V14.01,2013-03-07 23:29:00,
2013-03-07 18:34:00,39.9,25.1,30.29,SW,220,2.0,2.0,55,0.00,,SCT035,0.00,VWS V14.01,2013-03-07 23:34:00,
2013-03-07 18:39:00,39.6,25.2,30.29,WSW,238,1.0,1.0,56,0.00,,SCT035,0.00,VWS V14.01,2013-03-07 23:39:00,
2013-03-07 18:44:00,39.3,24.9,30.29,NNE,14,2.0,3.0,56,0.00,,SCT035,0.00,VWS V14.01,2013-03-07 23:44:00,
2013-03-07 18:49:00,39.1,24.7,30.29,North,355,1.0,2.0,56,0.00,,SCT035,0.00,VWS V14.01,2013-03-07 23:49:00,
2013-03-07 18:54:00,38.7,24.8,30.30,North,356,0.0,1.0,57,0.00,,SCT035,0.00,VWS V14.01,2013-03-07 23:54:00,
2013-03-07 18:59:00,38.3,24.8,30.30,NE,53,0.0,1.0,58,0.00,,SCT035,0.00,VWS V14.01,2013-03-07 23:59:00,
2013-03-07 19:04:00,38.1,24.6,30.30,NE,53,0.0,0.0,58,0.00,,SCT035,0.00,VWS V14.01,2013-03-08 00:04:00,
2013-03-07 19:09:00,37.6,24.6,30.30,NE,53,0.0,1.0,59,0.00,,SCT035,0.00,VWS V14.01,2013-03-08 00:09:00,
2013-03-07 19:14:00,37.1,24.5,30.30,NE,53,0.0,1.0,60,0.00,,SCT035,0.00,VWS V14.01,2013-03-08 00:14:00,
2013-03-07 19:19:00,36.7,24.5,30.30,NE,53,0.0,0.0,61,0.00,,SCT035,0.00,VWS V14.01,2013-03-08 00:19:00,
2013-03-07 19:24:00,36.3,24.9,30.30,West,259,3.0,3.0,63,0.00,,SCT035,0.00,VWS V14.01,2013-03-08 00:24:00,
2013-03-07 19:29:00,36.3,24.9,30.30,NW,305,0.0,0.0,63,0.00,,SCT035,0.00,VWS V14.01,2013-03-08 00:29:00,
2013-03-07 19:34:00,36.2,24.5,30.30,WNW,287,0.0,0.0,62,0.00,,SCT035,0.00,VWS V14.01,2013-03-08 00:34:00,
2013-03-07 19:39:00,36.1,24.4,30.31,WSW,256,1.0,1.0,62,0.00,,SCT035,0.00,VWS V14.01,2013-03-08 00:39:00,
2013-03-07 19:44:00,36.1,24.4,30.31,WSW,256,0.0,1.0,62,0.00,,SCT035,0.00,VWS V14.01,2013-03-08 00:44:00,
2013-03-07 19:49:00,35.9,24.5,30.31,WSW,243,0.0,0.0,63,0.00,,SCT035,0.00,VWS V14.01,2013-03-08 00:49:00,
2013-03-07 19:54:00,35.6,24.6,30.32,WSW,243,0.0,0.0,64,0.00,,SCT035,0.00,VWS V14.01,2013-03-08 00:54:00,
2013-03-07 19:59:00,35.2,24.3,30.32,WSW,244,0.0,0.0,64,0.00,,SCT035,0.00,VWS V14.01,2013-03-08 00:59:00,
2013-03-07 20:04:00,34.9,24.3,30.32,WSW,243,0.0,0.0,65,0.00,,SCT035,0.00,VWS V14.01,2013-03-08 01:04:00,
2013-03-07 20:09:00,34.5,24.3,30.32,WNW,287,1.0,1.0,66,0.00,,SCT035,0.00,VWS V14.01,2013-03-08 01:09:00,
2013-03-07 20:14:00,34.3,24.5,30.33,NE,35,0.0,0.0,67,0.00,,SCT035,0.00,VWS V14.01,2013-03-08 01:14:00,
2013-03-07 20:19:00,34.2,24.4,30.33,NNE,21,0.0,1.0,67,0.00,,SCT035,0.00,VWS V14.01,2013-03-08 01:19:00,
2013-03-07 20:24:00,34.1,24.3,30.33,NNW,333,0.0,0.0,67,0.00,,SCT035,0.00,VWS V14.01,2013-03-08 01:24:00,
2013-03-07 20:29:00,33.8,24.4,30.33,North,354,0.0,1.0,68,0.00,,SCT035,0.00,VWS V14.01,2013-03-08 01:29:00,
2013-03-07 20:34:00,33.7,24.3,30.33,NNE,23,0.0,1.0,68,0.00,,SCT035,0.00,VWS V14.01,2013-03-08 01:34:00,
2013-03-07 20:39:00,33.6,24.2,30.33,NNE,23,0.0,0.0,68,0.00,,SCT035,0.00,VWS V14.01,2013-03-08 01:39:00,
2013-03-07 20:44:00,33.3,23.9,30.33,NNE,23,0.0,0.0,68,0.00,,SCT035,0.00,VWS V14.01,2013-03-08 01:44:00,
2013-03-07 20:49:00,32.6,23.6,30.33,NNE,23,0.0,0.0,69,0.00,,SCT035,0.00,VWS V14.01,2013-03-08 01:49:00,
2013-03-07 20:54:00,32.1,23.4,30.33,NNE,23,0.0,0.0,70,0.00,,SCT035,0.00,VWS V14.01,2013-03-08 01:54:00,
2013-03-07 20:59:00,31.7,23.0,30.33,NNE,23,0.0,0.0,70,0.00,,SCT035,0.00,VWS V14.01,2013-03-08 01:59:00,
2013-03-07 21:04:00,31.0,22.7,30.33,NNE,23,0.0,0.0,71,0.00,,SCT035,0.00,VWS V14.01,2013-03-08 02:04:00,
2013-03-07 21:09:00,30.5,22.6,30.33,NNE,23,0.0,0.0,72,0.00,,SCT035,0.00,VWS V14.01,2013-03-08 02:09:00,
2013-03-07 21:14:00,30.1,22.8,30.33,NNE,23,0.0,0.0,74,0.00,,SCT035,0.00,VWS V14.01,2013-03-08 02:14:00,
2013-03-07 21:19:00,29.7,22.8,30.33,NNE,23,0.0,0.0,75,0.00,,SCT035,0.00,VWS V14.01,2013-03-08 02:19:00,
2013-03-07 21:24:00,29.4,22.5,30.33,NNE,23,0.0,0.0,75,0.00,,SCT035,0.00,VWS V14.01,2013-03-08 02:24:00,
2013-03-07 21:29:00,29.2,22.6,30.33,NNE,23,0.0,0.0,76,0.00,,SCT035,0.00,VWS V14.01,2013-03-08 02:29:00,
2013-03-07 21:34:00,28.9,22.6,30.33,NNE,23,0.0,0.0,77,0.00,,SCT035,0.00,VWS V14.01,2013-03-08 02:34:00,
2013-03-07 21:40:00,28.5,22.2,30.33,NNE,23,0.0,0.0,77,0.00,,SCT035,0.00,VWS V14.01,2013-03-08 02:40:00,
2013-03-07 21:45:00,28.3,22.0,30.33,NNE,23,0.0,0.0,77,0.00,,SCT035,0.00,VWS V14.01,2013-03-08 02:45:00,
2013-03-07 21:50:00,28.1,22.1,30.33,NNE,23,0.0,0.0,78,0.00,,SCT035,0.00,VWS V14.01,2013-03-08 02:50:00,
2013-03-07 21:55:00,28.0,22.3,30.33,NNE,23,0.0,0.0,79,0.00,,SCT035,0.00,VWS V14.01,2013-03-08 02:55:00,
2013-03-07 22:00:00,27.8,22.1,30.33,NNE,23,0.0,0.0,79,0.00,,SCT035,0.00,VWS V14.01,2013-03-08 03:00:00,
2013-03-07 22:05:00,27.5,21.9,30.33,NNE,23,0.0,1.0,79,0.00,,SCT035,0.00,VWS V14.01,2013-03-08 03:05:00,
2013-03-07 22:10:00,27.4,22.0,30.33,NNE,23,0.0,0.0,80,0.00,,SCT035,0.00,VWS V14.01,2013-03-08 03:10:00,
2013-03-07 22:15:00,27.2,21.9,30.33,NNE,23,0.0,0.0,80,0.00,,SCT035,0.00,VWS V14.01,2013-03-08 03:15:00,
2013-03-07 22:20:00,27.1,21.8,30.33,NNE,23,0.0,0.0,80,0.00,,SCT035,0.00,VWS V14.01,2013-03-08 03:20:00,
2013-03-07 22:25:00,26.9,21.6,30.33,NNE,23,0.0,0.0,80,0.00,,SCT035,0.00,VWS V14.01,2013-03-08 03:25:00,
2013-03-07 22:30:00,26.7,21.4,30.33,NNE,23,0.0,0.0,80,0.00,,SCT035,0.00,VWS V14.01,2013-03-08 03:30:00,
2013-03-07 22:35:00,26.7,21.7,30.33,NNE,23,0.0,0.0,81,0.00,,SCT035,0.00,VWS V14.01,2013-03-08 03:35:00,
2013-03-07 22:40:00,26.5,21.5,30.33,NNE,23,0.0,0.0,81,0.00,,SCT035,0.00,VWS V14.01,2013-03-08 03:40:00,
2013-03-07 22:45:00,26.2,21.2,30.33,NNE,23,0.0,0.0,81,0.00,,SCT035,0.00,VWS V14.01,2013-03-08 03:45:00,
2013-03-07 22:50:00,26.1,21.1,30.33,NNE,23,0.0,0.0,81,0.00,,SCT035,0.00,VWS V14.01,2013-03-08 03:50:00,
2013-03-07 22:55:00,26.1,21.1,30.33,NNE,23,0.0,0.0,81,0.00,,SCT035,0.00,VWS V14.01,2013-03-08 03:55:00,
2013-03-07 23:00:00,26.0,21.3,30.33,NNE,23,0.0,0.0,82,0.00,,SCT035,0.00,VWS V14.01,2013-03-08 04:00:00,
2013-03-07 23:05:00,25.8,21.1,30.34,NNE,23,0.0,0.0,82,0.00,,SCT035,0.00,VWS V14.01,2013-03-08 04:05:00,
2013-03-07 23:10:00,25.6,20.9,30.34,NNE,23,0.0,0.0,82,0.00,,SCT035,0.00,VWS V14.01,2013-03-08 04:10:00,
2013-03-07 23:15:00,25.5,20.8,30.34,NNE,23,0.0,1.0,82,0.00,,SCT035,0.00,VWS V14.01,2013-03-08 04:15:00,
2013-03-07 23:20:00,25.4,20.7,30.34,NNE,23,0.0,0.0,82,0.00,,SCT035,0.00,VWS V14.01,2013-03-08 04:20:00,
2013-03-07 23:25:00,25.4,21.0,30.34,NNE,23,0.0,0.0,83,0.00,,SCT035,0.00,VWS V14.01,2013-03-08 04:25:00,
2013-03-07 23:30:00,25.3,20.9,30.34,NNE,23,0.0,0.0,83,0.00,,SCT035,0.00,VWS V14.01,2013-03-08 04:30:00,
2013-03-07 23:35:00,25.3,20.9,30.34,NNE,23,0.0,0.0,83,0.00,,SCT035,0.00,VWS V14.01,2013-03-08 04:35:00,
2013-03-07 23:40:00,25.3,20.9,30.34,NNE,23,0.0,0.0,83,0.00,,SCT035,0.00,VWS V14.01,2013-03-08 04:40:00,
2013-03-07 23:45:00,25.1,20.7,30.34,NNE,23,0.0,0.0,83,0.00,,SCT035,0.00,VWS V14.01,2013-03-08 04:45:00,
2013-03-07 23:50:00,25.0,20.9,30.34,NNE,23,0.0,0.0,84,0.00,,SCT035,0.00,VWS V14.01,2013-03-08 04:50:00,
2013-03-07 23:55:00,24.9,20.8,30.34,NNE,23,0.0,0.0,84,0.00,,SCT035,0.00,VWS V14.01,2013-03-08 04:55:00,